HAZ2121 ZSHC-ZWWW
Flight info
| Callsign | HAZ2121 |
|---|---|
| Flight time | 4h 41m |
| Altitude | 34100 |
| Route | NIVIK8D NIVIK W135 DOGVI W545 VEMEX W163 HFE B208 ZHO H14 ZS H142 DOVOP W541 OVKAB W94 XFG W213 APESU W197 ANDIM B215 IBANO G470 QTV W99 FKG B215 WUR |
| Aircraft | A320/M-SDE3FGHIRWY/LB1 |
Departure
| Time | 2026-05-07 06:21 |
|---|---|
| Airport | Hangzhou Xiaoshan International Airport (ZSHC) |
Arrival
| Time | 2026-05-07 11:02 |
|---|---|
| Airport | Ürümqi Tianshan International Airport (ZWWW) |
| Time | Latitude | Longitude | Altitude | Speed | Heading |
|---|---|---|---|---|---|
| 2026-05-07 06:00 | 30.24121 | 120.42803 | 32 ft | 0 kts | 234° |
| 2026-05-07 06:11 | 30.24122 | 120.42804 | 32 ft | 2 kts | 234° |
| 2026-05-07 06:12 | 30.24134 | 120.42824 | 32 ft | 3 kts | 234° |
| 2026-05-07 06:12 | 30.24145 | 120.42843 | 31 ft | 3 kts | 255° |
| 2026-05-07 06:12 | 30.24145 | 120.42863 | 32 ft | 3 kts | 308° |
| 2026-05-07 06:12 | 30.24129 | 120.42879 | 29 ft | 3 kts | 331° |
| 2026-05-07 06:13 | 30.24119 | 120.42885 | 31 ft | 0 kts | 333° |
| 2026-05-07 06:15 | 30.24162 | 120.42859 | 30 ft | 13 kts | 333° |
| 2026-05-07 06:15 | 30.24267 | 120.42797 | 31 ft | 15 kts | 334° |
| 2026-05-07 06:15 | 30.24364 | 120.42793 | 30 ft | 14 kts | 334° |
| 2026-05-07 06:16 | 30.24417 | 120.42837 | 32 ft | 9 kts | 64° |
| 2026-05-07 06:16 | 30.24461 | 120.42936 | 32 ft | 21 kts | 63° |
| 2026-05-07 06:16 | 30.24546 | 120.43129 | 32 ft | 28 kts | 62° |
| 2026-05-07 06:16 | 30.24633 | 120.43325 | 32 ft | 24 kts | 63° |
| 2026-05-07 06:17 | 30.24702 | 120.43451 | 32 ft | 15 kts | 19° |
| 2026-05-07 06:17 | 30.24790 | 120.43465 | 32 ft | 13 kts | 49° |
| 2026-05-07 06:17 | 30.24845 | 120.43579 | 32 ft | 20 kts | 63° |
| 2026-05-07 06:17 | 30.24919 | 120.43747 | 32 ft | 25 kts | 63° |
| 2026-05-07 06:18 | 30.25001 | 120.43932 | 32 ft | 26 kts | 63° |
| 2026-05-07 06:18 | 30.25070 | 120.44040 | 31 ft | 11 kts | 2° |
| 2026-05-07 06:18 | 30.25131 | 120.44011 | 32 ft | 9 kts | 333° |
| 2026-05-07 06:18 | 30.25193 | 120.43974 | 33 ft | 7 kts | 333° |
| 2026-05-07 06:19 | 30.25202 | 120.43957 | 32 ft | 2 kts | 265° |
| 2026-05-07 06:19 | 30.25191 | 120.43928 | 32 ft | 0 kts | 242° |
| 2026-05-07 06:19 | 30.25171 | 120.43880 | 32 ft | 27 kts | 243° |
| 2026-05-07 06:20 | 30.24967 | 120.43422 | 32 ft | 97 kts | 243° |
| 2026-05-07 06:20 | 30.24573 | 120.42531 | 29 ft | 150 kts | 243° |
| 2026-05-07 06:20 | 30.24038 | 120.41315 | 124 ft | 184 kts | 243° |
| 2026-05-07 06:20 | 30.23425 | 120.39934 | 615 ft | 199 kts | 244° |
| 2026-05-07 06:21 | 30.22802 | 120.38513 | 1368 ft | 197 kts | 244° |
| 2026-05-07 06:21 | 30.22178 | 120.37114 | 1998 ft | 199 kts | 245° |
| 2026-05-07 06:21 | 30.21513 | 120.35625 | 2225 ft | 218 kts | 245° |
| 2026-05-07 06:21 | 30.20779 | 120.33972 | 2505 ft | 243 kts | 246° |
| 2026-05-07 06:22 | 30.19978 | 120.32174 | 2995 ft | 258 kts | 244° |
| 2026-05-07 06:22 | 30.18304 | 120.28417 | 4547 ft | 266 kts | 245° |
| 2026-05-07 06:22 | 30.17452 | 120.26505 | 5335 ft | 269 kts | 245° |
| 2026-05-07 06:23 | 30.16592 | 120.24577 | 6142 ft | 271 kts | 245° |
| 2026-05-07 06:23 | 30.15743 | 120.22618 | 6686 ft | 273 kts | 250° |
| 2026-05-07 06:23 | 30.15448 | 120.20490 | 6841 ft | 269 kts | 277° |
| 2026-05-07 06:23 | 30.16049 | 120.18470 | 6879 ft | 269 kts | 303° |
| 2026-05-07 06:24 | 30.17401 | 120.17003 | 6880 ft | 270 kts | 328° |
| 2026-05-07 06:24 | 30.19068 | 120.15952 | 7338 ft | 275 kts | 330° |
| 2026-05-07 06:24 | 30.20757 | 120.14896 | 8108 ft | 277 kts | 329° |
| 2026-05-07 06:24 | 30.22459 | 120.13827 | 8849 ft | 281 kts | 329° |
| 2026-05-07 06:25 | 30.24186 | 120.12742 | 9584 ft | 284 kts | 329° |
| 2026-05-07 06:25 | 30.25940 | 120.11638 | 10198 ft | 292 kts | 329° |
| 2026-05-07 06:25 | 30.27795 | 120.10464 | 10367 ft | 315 kts | 329° |
| 2026-05-07 06:25 | 30.29787 | 120.09201 | 10501 ft | 338 kts | 329° |
| 2026-05-07 06:26 | 30.31914 | 120.07852 | 10618 ft | 359 kts | 329° |
| 2026-05-07 06:26 | 30.34157 | 120.06433 | 10868 ft | 374 kts | 329° |
| 2026-05-07 06:26 | 30.36459 | 120.04982 | 11379 ft | 379 kts | 329° |
| 2026-05-07 06:26 | 30.38784 | 120.03512 | 11972 ft | 383 kts | 328° |
| 2026-05-07 06:27 | 30.41129 | 120.02028 | 12570 ft | 386 kts | 328° |
| 2026-05-07 06:27 | 30.43494 | 120.00534 | 13129 ft | 389 kts | 328° |
| 2026-05-07 06:27 | 30.45878 | 119.99026 | 13709 ft | 392 kts | 327° |
| 2026-05-07 06:27 | 30.48279 | 119.97507 | 14166 ft | 395 kts | 327° |
| 2026-05-07 06:28 | 30.50695 | 119.95976 | 14650 ft | 397 kts | 328° |
| 2026-05-07 06:28 | 30.53127 | 119.94434 | 15125 ft | 399 kts | 328° |
| 2026-05-07 06:28 | 30.55564 | 119.92887 | 15595 ft | 401 kts | 328° |
| 2026-05-07 06:28 | 30.58021 | 119.91326 | 16039 ft | 404 kts | 328° |
| 2026-05-07 06:29 | 30.60540 | 119.89857 | 16477 ft | 409 kts | 335° |
| 2026-05-07 06:29 | 30.63291 | 119.88912 | 16880 ft | 417 kts | 346° |
| 2026-05-07 06:29 | 30.66204 | 119.88601 | 17335 ft | 424 kts | 357° |
| 2026-05-07 06:29 | 30.69121 | 119.88972 | 17743 ft | 432 kts | 8° |
| 2026-05-07 06:30 | 30.72117 | 119.89616 | 18147 ft | 431 kts | 0° |
| 2026-05-07 06:30 | 30.75048 | 119.89459 | 18485 ft | 426 kts | 346° |
| 2026-05-07 06:30 | 30.77889 | 119.88553 | 18839 ft | 421 kts | 334° |
| 2026-05-07 06:30 | 30.80524 | 119.87104 | 19272 ft | 417 kts | 326° |
| 2026-05-07 06:31 | 30.82919 | 119.85238 | 19644 ft | 415 kts | 320° |
| 2026-05-07 06:31 | 30.85257 | 119.83255 | 19988 ft | 417 kts | 320° |
| 2026-05-07 06:31 | 30.87606 | 119.81261 | 20334 ft | 419 kts | 319° |
| 2026-05-07 06:31 | 30.89961 | 119.79252 | 20671 ft | 421 kts | 319° |
| 2026-05-07 06:32 | 30.92320 | 119.77227 | 21002 ft | 422 kts | 319° |
| 2026-05-07 06:32 | 30.94689 | 119.75187 | 21296 ft | 425 kts | 319° |
| 2026-05-07 06:32 | 30.97070 | 119.73134 | 21577 ft | 427 kts | 318° |
| 2026-05-07 06:32 | 30.99466 | 119.71066 | 21892 ft | 429 kts | 318° |
| 2026-05-07 06:33 | 31.01868 | 119.68991 | 22186 ft | 431 kts | 318° |
| 2026-05-07 06:33 | 31.04287 | 119.66899 | 22477 ft | 434 kts | 318° |
| 2026-05-07 06:33 | 31.06715 | 119.64798 | 22763 ft | 436 kts | 318° |
| 2026-05-07 06:33 | 31.09157 | 119.62687 | 23027 ft | 438 kts | 319° |
| 2026-05-07 06:34 | 31.11615 | 119.60561 | 23291 ft | 441 kts | 319° |
| 2026-05-07 06:34 | 31.14083 | 119.58419 | 23560 ft | 443 kts | 319° |
| 2026-05-07 06:34 | 31.16562 | 119.56263 | 23791 ft | 445 kts | 319° |
| 2026-05-07 06:34 | 31.19048 | 119.54103 | 24026 ft | 446 kts | 319° |
| 2026-05-07 06:35 | 31.21546 | 119.51943 | 24243 ft | 448 kts | 319° |
| 2026-05-07 06:35 | 31.24057 | 119.49773 | 24459 ft | 449 kts | 319° |
| 2026-05-07 06:35 | 31.26572 | 119.47595 | 24674 ft | 451 kts | 319° |
| 2026-05-07 06:35 | 31.29098 | 119.45405 | 24875 ft | 453 kts | 319° |
| 2026-05-07 06:36 | 31.31629 | 119.43208 | 25104 ft | 454 kts | 319° |
| 2026-05-07 06:36 | 31.34166 | 119.41002 | 25323 ft | 455 kts | 319° |
| 2026-05-07 06:36 | 31.36707 | 119.38787 | 25542 ft | 456 kts | 319° |
| 2026-05-07 06:36 | 31.39257 | 119.36563 | 25776 ft | 458 kts | 319° |
| 2026-05-07 06:37 | 31.41820 | 119.34326 | 25974 ft | 460 kts | 319° |
| 2026-05-07 06:37 | 31.44391 | 119.32087 | 26173 ft | 462 kts | 319° |
| 2026-05-07 06:37 | 31.46974 | 119.29836 | 26390 ft | 462 kts | 319° |
| 2026-05-07 06:37 | 31.49550 | 119.27589 | 26695 ft | 461 kts | 319° |
| 2026-05-07 06:38 | 31.52124 | 119.25344 | 26992 ft | 461 kts | 319° |
| 2026-05-07 06:38 | 31.54653 | 119.23128 | 27303 ft | 460 kts | 319° |
| 2026-05-07 06:38 | 31.57241 | 119.20853 | 27632 ft | 458 kts | 319° |
| 2026-05-07 06:38 | 31.59781 | 119.18606 | 27944 ft | 458 kts | 318° |
| 2026-05-07 06:39 | 31.62318 | 119.16352 | 28251 ft | 457 kts | 318° |
| 2026-05-07 06:39 | 31.64843 | 119.14088 | 28553 ft | 456 kts | 317° |
| 2026-05-07 06:39 | 31.67295 | 119.11742 | 28864 ft | 454 kts | 315° |
| 2026-05-07 06:39 | 31.69676 | 119.09314 | 29188 ft | 453 kts | 313° |
| 2026-05-07 06:40 | 31.72016 | 119.06849 | 29554 ft | 450 kts | 313° |
| 2026-05-07 06:40 | 31.74333 | 119.04386 | 29910 ft | 449 kts | 313° |
| 2026-05-07 06:40 | 31.76623 | 119.01968 | 30201 ft | 449 kts | 313° |
| 2026-05-07 06:40 | 31.78954 | 118.99463 | 30471 ft | 445 kts | 309° |
| 2026-05-07 06:41 | 31.80903 | 118.96734 | 30726 ft | 439 kts | 300° |
| 2026-05-07 06:41 | 31.82433 | 118.93667 | 31016 ft | 432 kts | 291° |
| 2026-05-07 06:41 | 31.83485 | 118.90389 | 31345 ft | 426 kts | 283° |
| 2026-05-07 06:41 | 31.84150 | 118.87010 | 31613 ft | 423 kts | 276° |
| 2026-05-07 06:42 | 31.84340 | 118.83579 | 31869 ft | 420 kts | 267° |
| 2026-05-07 06:42 | 31.84089 | 118.80163 | 32119 ft | 419 kts | 263° |
| 2026-05-07 06:42 | 31.83774 | 118.76754 | 32374 ft | 419 kts | 263° |
| 2026-05-07 06:42 | 31.83466 | 118.73355 | 32635 ft | 418 kts | 263° |
| 2026-05-07 06:43 | 31.83160 | 118.69959 | 32900 ft | 417 kts | 263° |
| 2026-05-07 06:43 | 31.82855 | 118.66566 | 33157 ft | 417 kts | 263° |
| 2026-05-07 06:43 | 31.82550 | 118.63183 | 33440 ft | 416 kts | 263° |
| 2026-05-07 06:43 | 31.82243 | 118.59806 | 33717 ft | 415 kts | 263° |
| 2026-05-07 06:44 | 31.81935 | 118.56436 | 33943 ft | 414 kts | 263° |
| 2026-05-07 06:44 | 31.81626 | 118.53062 | 34044 ft | 416 kts | 263° |
| 2026-05-07 06:44 | 31.81105 | 118.47394 | 34063 ft | 422 kts | 263° |
| 2026-05-07 06:45 | 31.80472 | 118.40522 | 34067 ft | 423 kts | 263° |
| 2026-05-07 06:45 | 31.79833 | 118.33651 | 34067 ft | 422 kts | 264° |
| 2026-05-07 06:46 | 31.79438 | 118.26773 | 34066 ft | 422 kts | 268° |
| 2026-05-07 06:46 | 31.79306 | 118.19880 | 34067 ft | 422 kts | 268° |
| 2026-05-07 06:47 | 31.79162 | 118.12980 | 34078 ft | 422 kts | 268° |
| 2026-05-07 06:47 | 31.79029 | 118.06081 | 34092 ft | 422 kts | 269° |
| 2026-05-07 06:48 | 31.78919 | 117.99187 | 34095 ft | 421 kts | 269° |
| 2026-05-07 06:48 | 31.78811 | 117.92306 | 34094 ft | 421 kts | 269° |
| 2026-05-07 06:49 | 31.78691 | 117.85441 | 34087 ft | 420 kts | 269° |
| 2026-05-07 06:49 | 31.78566 | 117.78577 | 34091 ft | 420 kts | 269° |
| 2026-05-07 06:50 | 31.78439 | 117.71719 | 34074 ft | 420 kts | 269° |
| 2026-05-07 06:50 | 31.78311 | 117.64861 | 34088 ft | 419 kts | 269° |
| 2026-05-07 06:51 | 31.78186 | 117.58009 | 34100 ft | 419 kts | 269° |
| 2026-05-07 06:51 | 31.78059 | 117.51156 | 34100 ft | 419 kts | 269° |
| 2026-05-07 06:52 | 31.77918 | 117.44305 | 34117 ft | 419 kts | 269° |
| 2026-05-07 06:52 | 31.77769 | 117.37461 | 34122 ft | 419 kts | 269° |
| 2026-05-07 06:53 | 31.78501 | 117.30730 | 34139 ft | 418 kts | 287° |
| 2026-05-07 06:53 | 31.81385 | 117.24814 | 34136 ft | 423 kts | 306° |
| 2026-05-07 06:54 | 31.85206 | 117.19558 | 34142 ft | 422 kts | 306° |
| 2026-05-07 06:54 | 31.88974 | 117.14332 | 34154 ft | 421 kts | 306° |
| 2026-05-07 06:55 | 31.92758 | 117.09071 | 34151 ft | 421 kts | 306° |
| 2026-05-07 06:55 | 31.96540 | 117.03814 | 34162 ft | 420 kts | 306° |
| 2026-05-07 06:56 | 32.00315 | 116.98561 | 34153 ft | 420 kts | 306° |
| 2026-05-07 06:56 | 32.04094 | 116.93310 | 34148 ft | 420 kts | 306° |
| 2026-05-07 06:57 | 32.07876 | 116.88064 | 34144 ft | 419 kts | 306° |
| 2026-05-07 06:57 | 32.11648 | 116.82822 | 34143 ft | 419 kts | 306° |
| 2026-05-07 06:58 | 32.15423 | 116.77573 | 34137 ft | 419 kts | 306° |
| 2026-05-07 06:58 | 32.19197 | 116.72319 | 34152 ft | 420 kts | 306° |
| 2026-05-07 06:59 | 32.22887 | 116.66984 | 34155 ft | 419 kts | 304° |
| 2026-05-07 06:59 | 32.26503 | 116.61589 | 34161 ft | 419 kts | 304° |
| 2026-05-07 07:00 | 32.30117 | 116.56196 | 34182 ft | 419 kts | 305° |
| 2026-05-07 07:00 | 32.33746 | 116.50813 | 34181 ft | 419 kts | 305° |
| 2026-05-07 07:01 | 32.37384 | 116.45441 | 34174 ft | 419 kts | 305° |
| 2026-05-07 07:01 | 32.41107 | 116.40140 | 34180 ft | 419 kts | 306° |
| 2026-05-07 07:02 | 32.44837 | 116.34909 | 34172 ft | 418 kts | 306° |
| 2026-05-07 07:02 | 32.48600 | 116.29595 | 34166 ft | 418 kts | 306° |
| 2026-05-07 07:03 | 32.52322 | 116.24303 | 34173 ft | 418 kts | 306° |
| 2026-05-07 07:03 | 32.56006 | 116.19042 | 34169 ft | 418 kts | 306° |
| 2026-05-07 07:04 | 32.59727 | 116.13748 | 34170 ft | 418 kts | 306° |
| 2026-05-07 07:04 | 32.63461 | 116.08469 | 34168 ft | 418 kts | 306° |
| 2026-05-07 07:05 | 32.67183 | 116.03182 | 34183 ft | 417 kts | 306° |
| 2026-05-07 07:05 | 32.70902 | 115.97895 | 34180 ft | 417 kts | 306° |
| 2026-05-07 07:06 | 32.74614 | 115.92607 | 34185 ft | 416 kts | 306° |
| 2026-05-07 07:06 | 32.78315 | 115.87315 | 34184 ft | 416 kts | 306° |
| 2026-05-07 07:07 | 32.82016 | 115.82028 | 34180 ft | 416 kts | 306° |
| 2026-05-07 07:07 | 32.85711 | 115.76738 | 34175 ft | 416 kts | 306° |
| 2026-05-07 07:08 | 32.89409 | 115.71446 | 34179 ft | 416 kts | 307° |
| 2026-05-07 07:08 | 32.93210 | 115.66248 | 34178 ft | 417 kts | 308° |
| 2026-05-07 07:09 | 32.97060 | 115.61087 | 34169 ft | 417 kts | 308° |
| 2026-05-07 07:09 | 33.00898 | 115.55896 | 34196 ft | 418 kts | 307° |
| 2026-05-07 07:10 | 33.04698 | 115.50704 | 34194 ft | 419 kts | 306° |
| 2026-05-07 07:10 | 33.08517 | 115.45464 | 34182 ft | 419 kts | 306° |
| 2026-05-07 07:11 | 33.12343 | 115.40216 | 34185 ft | 419 kts | 306° |
| 2026-05-07 07:11 | 33.16170 | 115.34960 | 34190 ft | 420 kts | 306° |
| 2026-05-07 07:12 | 33.19998 | 115.29700 | 34192 ft | 420 kts | 306° |
| 2026-05-07 07:12 | 33.23833 | 115.24437 | 34193 ft | 420 kts | 306° |
| 2026-05-07 07:13 | 33.27664 | 115.19163 | 34191 ft | 420 kts | 306° |
| 2026-05-07 07:13 | 33.31487 | 115.13878 | 34214 ft | 420 kts | 306° |
| 2026-05-07 07:14 | 33.35306 | 115.08591 | 34236 ft | 420 kts | 306° |
| 2026-05-07 07:14 | 33.39123 | 115.03306 | 34228 ft | 419 kts | 306° |
| 2026-05-07 07:15 | 33.42929 | 114.98034 | 34239 ft | 418 kts | 305° |
| 2026-05-07 07:15 | 33.46694 | 114.92820 | 34233 ft | 416 kts | 305° |
| 2026-05-07 07:16 | 33.50471 | 114.87574 | 34235 ft | 415 kts | 305° |
| 2026-05-07 07:16 | 33.54239 | 114.82331 | 34230 ft | 415 kts | 305° |
| 2026-05-07 07:17 | 33.57992 | 114.77084 | 34222 ft | 414 kts | 305° |
| 2026-05-07 07:17 | 33.61745 | 114.71840 | 34229 ft | 414 kts | 305° |
| 2026-05-07 07:18 | 33.65425 | 114.66533 | 34226 ft | 410 kts | 298° |
| 2026-05-07 07:18 | 33.67762 | 114.60427 | 34226 ft | 401 kts | 285° |
| 2026-05-07 07:19 | 33.69492 | 114.54050 | 34222 ft | 402 kts | 285° |
| 2026-05-07 07:19 | 33.71242 | 114.47676 | 34226 ft | 402 kts | 285° |
| 2026-05-07 07:20 | 33.72968 | 114.41280 | 34226 ft | 402 kts | 285° |
| 2026-05-07 07:20 | 33.74659 | 114.34875 | 34235 ft | 402 kts | 284° |
| 2026-05-07 07:21 | 33.76333 | 114.28514 | 34246 ft | 402 kts | 284° |
| 2026-05-07 07:21 | 33.78027 | 114.22116 | 34263 ft | 401 kts | 284° |
| 2026-05-07 07:22 | 33.79712 | 114.15729 | 34257 ft | 400 kts | 284° |
| 2026-05-07 07:22 | 33.81387 | 114.09352 | 34258 ft | 400 kts | 284° |
| 2026-05-07 07:23 | 33.83068 | 114.02982 | 34253 ft | 399 kts | 284° |
| 2026-05-07 07:23 | 33.84783 | 113.96639 | 34252 ft | 399 kts | 285° |
| 2026-05-07 07:24 | 33.86500 | 113.90297 | 34251 ft | 398 kts | 285° |
| 2026-05-07 07:24 | 33.88201 | 113.83957 | 34246 ft | 398 kts | 284° |
| 2026-05-07 07:25 | 33.90738 | 113.74435 | 34254 ft | 398 kts | 284° |
| 2026-05-07 07:26 | 33.92428 | 113.68087 | 34252 ft | 398 kts | 284° |
| 2026-05-07 07:26 | 33.94112 | 113.61783 | 34248 ft | 398 kts | 284° |
| 2026-05-07 07:27 | 33.95800 | 113.55438 | 34243 ft | 398 kts | 284° |
| 2026-05-07 07:27 | 33.97478 | 113.49089 | 34241 ft | 398 kts | 284° |
| 2026-05-07 07:28 | 33.99151 | 113.42735 | 34241 ft | 398 kts | 284° |
| 2026-05-07 07:28 | 34.00826 | 113.36379 | 34236 ft | 398 kts | 284° |
| 2026-05-07 07:29 | 34.02498 | 113.30013 | 34232 ft | 399 kts | 284° |
| 2026-05-07 07:29 | 34.04195 | 113.23649 | 34232 ft | 399 kts | 284° |
| 2026-05-07 07:30 | 34.05906 | 113.17281 | 34231 ft | 399 kts | 284° |
| 2026-05-07 07:30 | 34.07613 | 113.10910 | 34233 ft | 399 kts | 284° |
| 2026-05-07 07:31 | 34.09314 | 113.04533 | 34244 ft | 399 kts | 284° |
| 2026-05-07 07:31 | 34.11008 | 112.98151 | 34243 ft | 399 kts | 284° |
| 2026-05-07 07:32 | 34.12699 | 112.91775 | 34241 ft | 399 kts | 284° |
| 2026-05-07 07:32 | 34.14254 | 112.85365 | 34238 ft | 396 kts | 277° |
| 2026-05-07 07:33 | 34.14270 | 112.78785 | 34231 ft | 393 kts | 263° |
| 2026-05-07 07:33 | 34.13761 | 112.73328 | 34228 ft | 394 kts | 263° |
| 2026-05-07 07:34 | 34.13152 | 112.66756 | 34224 ft | 394 kts | 263° |
| 2026-05-07 07:34 | 34.12436 | 112.59116 | 34221 ft | 394 kts | 263° |
| 2026-05-07 07:35 | 34.11810 | 112.52543 | 34211 ft | 394 kts | 263° |
| 2026-05-07 07:35 | 34.11182 | 112.45954 | 34197 ft | 396 kts | 263° |
| 2026-05-07 07:36 | 34.10560 | 112.39341 | 34199 ft | 397 kts | 263° |
| 2026-05-07 07:36 | 34.10058 | 112.33834 | 34203 ft | 398 kts | 263° |
| 2026-05-07 07:37 | 34.09463 | 112.27188 | 34205 ft | 399 kts | 264° |
| 2026-05-07 07:37 | 34.08888 | 112.20528 | 34208 ft | 399 kts | 264° |
| 2026-05-07 07:38 | 34.08308 | 112.13866 | 34215 ft | 399 kts | 264° |
| 2026-05-07 07:38 | 34.07721 | 112.07204 | 34216 ft | 400 kts | 263° |
| 2026-05-07 07:39 | 34.07129 | 112.00530 | 34218 ft | 400 kts | 263° |
| 2026-05-07 07:39 | 34.06534 | 111.93857 | 34217 ft | 400 kts | 263° |
| 2026-05-07 07:40 | 34.05937 | 111.87180 | 34218 ft | 401 kts | 263° |
| 2026-05-07 07:40 | 34.05334 | 111.80493 | 34224 ft | 401 kts | 263° |
| 2026-05-07 07:41 | 34.04728 | 111.73820 | 34229 ft | 400 kts | 263° |
| 2026-05-07 07:41 | 34.04113 | 111.67149 | 34234 ft | 400 kts | 263° |
| 2026-05-07 07:42 | 34.03496 | 111.60479 | 34214 ft | 401 kts | 264° |
| 2026-05-07 07:42 | 34.02886 | 111.53842 | 34213 ft | 402 kts | 263° |
| 2026-05-07 07:43 | 34.02261 | 111.47141 | 34215 ft | 403 kts | 263° |
| 2026-05-07 07:43 | 34.01635 | 111.40434 | 34226 ft | 403 kts | 264° |
| 2026-05-07 07:44 | 34.01004 | 111.33711 | 34233 ft | 404 kts | 263° |
| 2026-05-07 07:44 | 34.00366 | 111.26992 | 34236 ft | 404 kts | 263° |
| 2026-05-07 07:45 | 33.99726 | 111.20264 | 34242 ft | 404 kts | 263° |
| 2026-05-07 07:45 | 33.99082 | 111.13538 | 34251 ft | 404 kts | 263° |
| 2026-05-07 07:46 | 33.98437 | 111.06813 | 34248 ft | 404 kts | 263° |
| 2026-05-07 07:46 | 33.97782 | 111.00103 | 34254 ft | 403 kts | 263° |
| 2026-05-07 07:47 | 33.97125 | 110.93388 | 34254 ft | 403 kts | 263° |
| 2026-05-07 07:47 | 33.96465 | 110.86684 | 34252 ft | 403 kts | 263° |
| 2026-05-07 07:48 | 33.95807 | 110.79974 | 34257 ft | 403 kts | 263° |
| 2026-05-07 07:48 | 33.95145 | 110.73279 | 34238 ft | 402 kts | 263° |
| 2026-05-07 07:49 | 33.94480 | 110.66601 | 34252 ft | 401 kts | 263° |
| 2026-05-07 07:49 | 33.93812 | 110.59936 | 34263 ft | 401 kts | 263° |
| 2026-05-07 07:50 | 33.93161 | 110.53260 | 34266 ft | 401 kts | 264° |
| 2026-05-07 07:50 | 33.92556 | 110.46589 | 34273 ft | 401 kts | 264° |
| 2026-05-07 07:51 | 33.91957 | 110.39919 | 34282 ft | 401 kts | 264° |
| 2026-05-07 07:51 | 33.91346 | 110.33295 | 34280 ft | 401 kts | 264° |
| 2026-05-07 07:52 | 33.90719 | 110.26632 | 34283 ft | 401 kts | 264° |
| 2026-05-07 07:52 | 33.90091 | 110.19970 | 34281 ft | 401 kts | 264° |
| 2026-05-07 07:53 | 33.89460 | 110.13308 | 34279 ft | 400 kts | 264° |
| 2026-05-07 07:53 | 33.88832 | 110.06647 | 34284 ft | 400 kts | 264° |
| 2026-05-07 07:54 | 33.88197 | 109.99987 | 34282 ft | 401 kts | 264° |
| 2026-05-07 07:54 | 33.88019 | 109.93313 | 34292 ft | 401 kts | 276° |
| 2026-05-07 07:55 | 33.89651 | 109.86882 | 34286 ft | 405 kts | 288° |
| 2026-05-07 07:55 | 33.91730 | 109.80581 | 34292 ft | 405 kts | 288° |
| 2026-05-07 07:56 | 33.93789 | 109.74273 | 34314 ft | 404 kts | 288° |
| 2026-05-07 07:56 | 33.95838 | 109.67965 | 34317 ft | 404 kts | 288° |
| 2026-05-07 07:57 | 33.97866 | 109.61714 | 34322 ft | 403 kts | 288° |
| 2026-05-07 07:57 | 33.99909 | 109.55414 | 34321 ft | 403 kts | 288° |
| 2026-05-07 07:58 | 34.01944 | 109.49114 | 34336 ft | 403 kts | 288° |
| 2026-05-07 07:58 | 34.03973 | 109.42818 | 34344 ft | 403 kts | 288° |
| 2026-05-07 07:59 | 34.05998 | 109.36535 | 34353 ft | 401 kts | 288° |
| 2026-05-07 07:59 | 34.08010 | 109.30263 | 34352 ft | 400 kts | 288° |
| 2026-05-07 08:00 | 34.10016 | 109.24004 | 34349 ft | 400 kts | 288° |
| 2026-05-07 08:00 | 34.12020 | 109.17743 | 34340 ft | 400 kts | 288° |
| 2026-05-07 08:01 | 34.14016 | 109.11483 | 34331 ft | 399 kts | 287° |
| 2026-05-07 08:01 | 34.16012 | 109.05215 | 34316 ft | 401 kts | 287° |
| 2026-05-07 08:02 | 34.17997 | 108.98956 | 34310 ft | 402 kts | 287° |
| 2026-05-07 08:02 | 34.20015 | 108.92641 | 34310 ft | 405 kts | 290° |
| 2026-05-07 08:02 | 34.21408 | 108.89659 | 34307 ft | 412 kts | 301° |
| 2026-05-07 08:03 | 34.23359 | 108.87080 | 34307 ft | 422 kts | 313° |
| 2026-05-07 08:03 | 34.25852 | 108.85043 | 34305 ft | 435 kts | 326° |
| 2026-05-07 08:03 | 34.28683 | 108.83762 | 34330 ft | 448 kts | 338° |
| 2026-05-07 08:04 | 34.34776 | 108.82088 | 34329 ft | 449 kts | 339° |
| 2026-05-07 08:04 | 34.40867 | 108.80425 | 34325 ft | 449 kts | 339° |
| 2026-05-07 08:05 | 34.46952 | 108.78752 | 34327 ft | 448 kts | 339° |
| 2026-05-07 08:05 | 34.53038 | 108.77077 | 34345 ft | 448 kts | 339° |
| 2026-05-07 08:06 | 34.59126 | 108.75400 | 34336 ft | 449 kts | 339° |
| 2026-05-07 08:06 | 34.65217 | 108.73724 | 34330 ft | 449 kts | 339° |
| 2026-05-07 08:07 | 34.71292 | 108.72003 | 34324 ft | 445 kts | 335° |
| 2026-05-07 08:07 | 34.76703 | 108.68792 | 34320 ft | 425 kts | 317° |
| 2026-05-07 08:08 | 34.80879 | 108.63882 | 34340 ft | 416 kts | 306° |
| 2026-05-07 08:08 | 34.84756 | 108.58654 | 34324 ft | 417 kts | 307° |
| 2026-05-07 08:09 | 34.88647 | 108.53417 | 34314 ft | 417 kts | 307° |
| 2026-05-07 08:09 | 34.92535 | 108.48166 | 34311 ft | 417 kts | 307° |
| 2026-05-07 08:10 | 34.96417 | 108.42901 | 34302 ft | 417 kts | 306° |
| 2026-05-07 08:10 | 34.99640 | 108.37125 | 34300 ft | 412 kts | 298° |
| 2026-05-07 08:11 | 35.02706 | 108.31226 | 34306 ft | 411 kts | 298° |
| 2026-05-07 08:11 | 35.05757 | 108.25318 | 34302 ft | 411 kts | 298° |
| 2026-05-07 08:12 | 35.08797 | 108.19409 | 34300 ft | 411 kts | 298° |
| 2026-05-07 08:12 | 35.11837 | 108.13492 | 34293 ft | 411 kts | 298° |
| 2026-05-07 08:13 | 35.14874 | 108.07577 | 34292 ft | 411 kts | 298° |
| 2026-05-07 08:13 | 35.17888 | 108.01697 | 34290 ft | 411 kts | 298° |
| 2026-05-07 08:14 | 35.20926 | 107.95778 | 34286 ft | 411 kts | 298° |
| 2026-05-07 08:14 | 35.23956 | 107.89854 | 34286 ft | 411 kts | 297° |
| 2026-05-07 08:15 | 35.26980 | 107.83921 | 34280 ft | 411 kts | 297° |
| 2026-05-07 08:15 | 35.29998 | 107.77992 | 34279 ft | 411 kts | 297° |
| 2026-05-07 08:16 | 35.33010 | 107.72054 | 34269 ft | 410 kts | 297° |
| 2026-05-07 08:16 | 35.36022 | 107.66113 | 34269 ft | 410 kts | 297° |
| 2026-05-07 08:17 | 35.39034 | 107.60174 | 34267 ft | 410 kts | 297° |
| 2026-05-07 08:17 | 35.42046 | 107.54232 | 34267 ft | 410 kts | 297° |
| 2026-05-07 08:18 | 35.45057 | 107.48284 | 34269 ft | 410 kts | 297° |
| 2026-05-07 08:18 | 35.48051 | 107.42330 | 34275 ft | 410 kts | 297° |
| 2026-05-07 08:19 | 35.51042 | 107.36376 | 34271 ft | 410 kts | 297° |
| 2026-05-07 08:19 | 35.54036 | 107.30428 | 34265 ft | 409 kts | 297° |
| 2026-05-07 08:20 | 35.57001 | 107.24519 | 34261 ft | 409 kts | 297° |
| 2026-05-07 08:20 | 35.59976 | 107.18569 | 34253 ft | 409 kts | 297° |
| 2026-05-07 08:21 | 35.62955 | 107.12615 | 34248 ft | 409 kts | 297° |
| 2026-05-07 08:21 | 35.65928 | 107.06653 | 34242 ft | 409 kts | 297° |
| 2026-05-07 08:22 | 35.68890 | 107.00685 | 34243 ft | 409 kts | 297° |
| 2026-05-07 08:22 | 35.71857 | 106.94717 | 34241 ft | 409 kts | 297° |
| 2026-05-07 08:23 | 35.74823 | 106.88747 | 34240 ft | 408 kts | 297° |
| 2026-05-07 08:23 | 35.77779 | 106.82777 | 34238 ft | 408 kts | 297° |
| 2026-05-07 08:24 | 35.80230 | 106.77811 | 34262 ft | 408 kts | 297° |
| 2026-05-07 08:24 | 35.83188 | 106.71835 | 34259 ft | 409 kts | 297° |
| 2026-05-07 08:25 | 35.86638 | 106.64843 | 34254 ft | 409 kts | 297° |
| 2026-05-07 08:25 | 35.89091 | 106.59860 | 34254 ft | 409 kts | 297° |
| 2026-05-07 08:26 | 35.93511 | 106.50852 | 34253 ft | 409 kts | 297° |
| 2026-05-07 08:26 | 35.96453 | 106.44848 | 34245 ft | 409 kts | 297° |
| 2026-05-07 08:27 | 35.99397 | 106.38837 | 34247 ft | 409 kts | 297° |
| 2026-05-07 08:27 | 36.02332 | 106.32822 | 34241 ft | 409 kts | 297° |
| 2026-05-07 08:28 | 36.05266 | 106.26799 | 34237 ft | 409 kts | 297° |
| 2026-05-07 08:28 | 36.07976 | 106.20647 | 34234 ft | 405 kts | 288° |
| 2026-05-07 08:29 | 36.09539 | 106.13991 | 34226 ft | 403 kts | 283° |
| 2026-05-07 08:29 | 36.11037 | 106.07303 | 34221 ft | 403 kts | 284° |
| 2026-05-07 08:30 | 36.12530 | 106.00617 | 34224 ft | 404 kts | 283° |
| 2026-05-07 08:30 | 36.14016 | 105.93919 | 34219 ft | 404 kts | 283° |
| 2026-05-07 08:31 | 36.15504 | 105.87207 | 34223 ft | 405 kts | 283° |
| 2026-05-07 08:31 | 36.16991 | 105.80483 | 34228 ft | 405 kts | 283° |
| 2026-05-07 08:32 | 36.18463 | 105.73793 | 34243 ft | 405 kts | 283° |
| 2026-05-07 08:32 | 36.19944 | 105.67061 | 34258 ft | 405 kts | 283° |
| 2026-05-07 08:33 | 36.21421 | 105.60338 | 34260 ft | 405 kts | 283° |
| 2026-05-07 08:33 | 36.22890 | 105.53608 | 34262 ft | 405 kts | 283° |
| 2026-05-07 08:34 | 36.24352 | 105.46874 | 34264 ft | 405 kts | 283° |
| 2026-05-07 08:34 | 36.25813 | 105.40132 | 34261 ft | 405 kts | 283° |
| 2026-05-07 08:35 | 36.27270 | 105.33392 | 34263 ft | 405 kts | 282° |
| 2026-05-07 08:35 | 36.28722 | 105.26644 | 34264 ft | 405 kts | 282° |
| 2026-05-07 08:36 | 36.30174 | 105.19882 | 34268 ft | 406 kts | 282° |
| 2026-05-07 08:36 | 36.31628 | 105.13118 | 34269 ft | 406 kts | 282° |
| 2026-05-07 08:37 | 36.33081 | 105.06342 | 34276 ft | 407 kts | 282° |
| 2026-05-07 08:37 | 36.34523 | 104.99555 | 34276 ft | 407 kts | 282° |
| 2026-05-07 08:38 | 36.35960 | 104.92764 | 34282 ft | 407 kts | 282° |
| 2026-05-07 08:38 | 36.37398 | 104.85977 | 34282 ft | 407 kts | 282° |
| 2026-05-07 08:39 | 36.38836 | 104.79168 | 34283 ft | 408 kts | 282° |
| 2026-05-07 08:39 | 36.40270 | 104.72342 | 34285 ft | 409 kts | 282° |
| 2026-05-07 08:40 | 36.41707 | 104.65520 | 34281 ft | 409 kts | 282° |
| 2026-05-07 08:40 | 36.43137 | 104.58687 | 34287 ft | 409 kts | 282° |
| 2026-05-07 08:41 | 36.44564 | 104.51857 | 34289 ft | 409 kts | 282° |
| 2026-05-07 08:41 | 36.45988 | 104.45027 | 34301 ft | 408 kts | 282° |
| 2026-05-07 08:42 | 36.47399 | 104.38194 | 34300 ft | 408 kts | 282° |
| 2026-05-07 08:42 | 36.49333 | 104.31548 | 34316 ft | 414 kts | 294° |
| 2026-05-07 08:43 | 36.52042 | 104.25224 | 34313 ft | 414 kts | 294° |
| 2026-05-07 08:43 | 36.54737 | 104.18940 | 34319 ft | 415 kts | 294° |
| 2026-05-07 08:44 | 36.57442 | 104.12601 | 34318 ft | 415 kts | 294° |
| 2026-05-07 08:44 | 36.60140 | 104.06239 | 34334 ft | 416 kts | 294° |
| 2026-05-07 08:45 | 36.62848 | 103.99872 | 34332 ft | 417 kts | 294° |
| 2026-05-07 08:45 | 36.65614 | 103.93526 | 34348 ft | 417 kts | 294° |
| 2026-05-07 08:46 | 36.68392 | 103.87188 | 34370 ft | 417 kts | 294° |
| 2026-05-07 08:46 | 36.71153 | 103.80841 | 34361 ft | 417 kts | 294° |
| 2026-05-07 08:47 | 36.73903 | 103.74478 | 34367 ft | 417 kts | 294° |
| 2026-05-07 08:47 | 36.76662 | 103.68103 | 34365 ft | 418 kts | 294° |
| 2026-05-07 08:48 | 36.79420 | 103.61722 | 34371 ft | 418 kts | 294° |
| 2026-05-07 08:48 | 36.82173 | 103.55324 | 34374 ft | 419 kts | 294° |
| 2026-05-07 08:49 | 36.84904 | 103.48955 | 34381 ft | 419 kts | 294° |
| 2026-05-07 08:49 | 36.87673 | 103.42484 | 34379 ft | 420 kts | 294° |
| 2026-05-07 08:50 | 36.90414 | 103.36090 | 34377 ft | 421 kts | 294° |
| 2026-05-07 08:50 | 36.93170 | 103.29638 | 34382 ft | 421 kts | 294° |
| 2026-05-07 08:51 | 36.96102 | 103.23279 | 34386 ft | 423 kts | 298° |
| 2026-05-07 08:51 | 36.99308 | 103.17095 | 34387 ft | 425 kts | 299° |
| 2026-05-07 08:52 | 37.02533 | 103.10899 | 34376 ft | 425 kts | 298° |
| 2026-05-07 08:52 | 37.05692 | 103.04641 | 34374 ft | 425 kts | 298° |
| 2026-05-07 08:53 | 37.08822 | 102.98354 | 34370 ft | 426 kts | 298° |
| 2026-05-07 08:53 | 37.11968 | 102.92058 | 34363 ft | 427 kts | 298° |
| 2026-05-07 08:54 | 37.15119 | 102.85757 | 34364 ft | 427 kts | 298° |
| 2026-05-07 08:54 | 37.18267 | 102.79440 | 34366 ft | 427 kts | 298° |
| 2026-05-07 08:55 | 37.21405 | 102.73119 | 34365 ft | 427 kts | 298° |
| 2026-05-07 08:55 | 37.24551 | 102.66784 | 34351 ft | 428 kts | 298° |
| 2026-05-07 08:56 | 37.27699 | 102.60441 | 34357 ft | 428 kts | 298° |
| 2026-05-07 08:56 | 37.30828 | 102.54127 | 34364 ft | 429 kts | 298° |
| 2026-05-07 08:57 | 37.33977 | 102.47758 | 34347 ft | 429 kts | 297° |
| 2026-05-07 08:57 | 37.36430 | 102.41014 | 34343 ft | 422 kts | 282° |
| 2026-05-07 08:58 | 37.37827 | 102.33864 | 34338 ft | 422 kts | 281° |
| 2026-05-07 08:58 | 37.39234 | 102.26697 | 34337 ft | 422 kts | 281° |
| 2026-05-07 08:59 | 37.40646 | 102.19523 | 34337 ft | 423 kts | 281° |
| 2026-05-07 08:59 | 37.42047 | 102.12336 | 34338 ft | 423 kts | 281° |
| 2026-05-07 09:00 | 37.43440 | 102.05143 | 34338 ft | 423 kts | 281° |
| 2026-05-07 09:00 | 37.44830 | 101.97949 | 34328 ft | 423 kts | 281° |
| 2026-05-07 09:01 | 37.46217 | 101.90749 | 34328 ft | 423 kts | 281° |
| 2026-05-07 09:01 | 37.47611 | 101.83542 | 34319 ft | 424 kts | 281° |
| 2026-05-07 09:02 | 37.48991 | 101.76377 | 34319 ft | 424 kts | 281° |
| 2026-05-07 09:02 | 37.50441 | 101.69179 | 34314 ft | 426 kts | 286° |
| 2026-05-07 09:03 | 37.52971 | 101.62393 | 34310 ft | 430 kts | 294° |
| 2026-05-07 09:03 | 37.55697 | 101.55685 | 34292 ft | 430 kts | 293° |
| 2026-05-07 09:04 | 37.58419 | 101.48965 | 34298 ft | 430 kts | 293° |
| 2026-05-07 09:04 | 37.61131 | 101.42235 | 34287 ft | 430 kts | 293° |
| 2026-05-07 09:05 | 37.63837 | 101.35505 | 34285 ft | 430 kts | 293° |
| 2026-05-07 09:05 | 37.66567 | 101.28792 | 34281 ft | 431 kts | 294° |
| 2026-05-07 09:06 | 37.69468 | 101.22226 | 34274 ft | 431 kts | 296° |
| 2026-05-07 09:06 | 37.72450 | 101.15649 | 34273 ft | 431 kts | 296° |
| 2026-05-07 09:07 | 37.75395 | 101.09048 | 34276 ft | 431 kts | 295° |
| 2026-05-07 09:07 | 37.78309 | 101.02420 | 34266 ft | 431 kts | 295° |
| 2026-05-07 09:08 | 37.81209 | 100.95787 | 34255 ft | 431 kts | 295° |
| 2026-05-07 09:08 | 37.84114 | 100.89154 | 34255 ft | 431 kts | 295° |
| 2026-05-07 09:09 | 37.87000 | 100.82510 | 34251 ft | 431 kts | 295° |
| 2026-05-07 09:09 | 37.89873 | 100.75856 | 34247 ft | 431 kts | 295° |
| 2026-05-07 09:10 | 37.92739 | 100.69193 | 34253 ft | 430 kts | 295° |
| 2026-05-07 09:10 | 37.95602 | 100.62539 | 34277 ft | 430 kts | 294° |
| 2026-05-07 09:11 | 37.98452 | 100.55906 | 34289 ft | 427 kts | 294° |
| 2026-05-07 09:11 | 38.01284 | 100.49298 | 34276 ft | 426 kts | 294° |
| 2026-05-07 09:12 | 38.04103 | 100.42710 | 34273 ft | 425 kts | 294° |
| 2026-05-07 09:12 | 38.06909 | 100.36123 | 34266 ft | 424 kts | 294° |
| 2026-05-07 09:13 | 38.09238 | 100.30654 | 34266 ft | 424 kts | 294° |
| 2026-05-07 09:13 | 38.12503 | 100.22965 | 34256 ft | 423 kts | 294° |
| 2026-05-07 09:14 | 38.14823 | 100.17497 | 34256 ft | 423 kts | 294° |
| 2026-05-07 09:14 | 38.17611 | 100.10930 | 34256 ft | 422 kts | 293° |
| 2026-05-07 09:15 | 38.20837 | 100.03288 | 34258 ft | 422 kts | 294° |
| 2026-05-07 09:15 | 38.23633 | 99.96724 | 34271 ft | 422 kts | 294° |
| 2026-05-07 09:16 | 38.26040 | 99.91272 | 34277 ft | 422 kts | 295° |
| 2026-05-07 09:16 | 38.28926 | 99.84779 | 34276 ft | 421 kts | 295° |
| 2026-05-07 09:17 | 38.31769 | 99.78319 | 34296 ft | 421 kts | 294° |
| 2026-05-07 09:17 | 38.34613 | 99.71808 | 34288 ft | 420 kts | 294° |
| 2026-05-07 09:18 | 38.37446 | 99.65290 | 34297 ft | 420 kts | 294° |
| 2026-05-07 09:18 | 38.40281 | 99.58780 | 34295 ft | 420 kts | 294° |
| 2026-05-07 09:19 | 38.43114 | 99.52258 | 34301 ft | 421 kts | 294° |
| 2026-05-07 09:19 | 38.45940 | 99.45727 | 34298 ft | 421 kts | 294° |
| 2026-05-07 09:20 | 38.48771 | 99.39187 | 34304 ft | 421 kts | 294° |
| 2026-05-07 09:20 | 38.51596 | 99.32641 | 34300 ft | 421 kts | 294° |
| 2026-05-07 09:21 | 38.54417 | 99.26089 | 34298 ft | 421 kts | 294° |
| 2026-05-07 09:21 | 38.57223 | 99.19575 | 34298 ft | 421 kts | 294° |
| 2026-05-07 09:22 | 38.60045 | 99.13007 | 34300 ft | 421 kts | 294° |
| 2026-05-07 09:22 | 38.62854 | 99.06439 | 34295 ft | 421 kts | 293° |
| 2026-05-07 09:23 | 38.65659 | 98.99847 | 34300 ft | 422 kts | 293° |
| 2026-05-07 09:23 | 38.68465 | 98.93247 | 34300 ft | 422 kts | 293° |
| 2026-05-07 09:24 | 38.71275 | 98.86641 | 34302 ft | 423 kts | 293° |
| 2026-05-07 09:24 | 38.74085 | 98.80028 | 34304 ft | 423 kts | 293° |
| 2026-05-07 09:25 | 38.76893 | 98.73410 | 34294 ft | 423 kts | 293° |
| 2026-05-07 09:25 | 38.79702 | 98.66775 | 34274 ft | 425 kts | 293° |
| 2026-05-07 09:26 | 38.82514 | 98.60097 | 34276 ft | 427 kts | 293° |
| 2026-05-07 09:26 | 38.85317 | 98.53428 | 34267 ft | 428 kts | 293° |
| 2026-05-07 09:27 | 38.88141 | 98.46701 | 34247 ft | 428 kts | 293° |
| 2026-05-07 09:28 | 38.92380 | 98.36574 | 34264 ft | 430 kts | 293° |
| 2026-05-07 09:28 | 38.95208 | 98.29816 | 34243 ft | 430 kts | 293° |
| 2026-05-07 09:29 | 38.98035 | 98.23038 | 34244 ft | 431 kts | 293° |
| 2026-05-07 09:29 | 39.00859 | 98.16246 | 34234 ft | 431 kts | 292° |
| 2026-05-07 09:30 | 39.03678 | 98.09451 | 34250 ft | 431 kts | 292° |
| 2026-05-07 09:30 | 39.06494 | 98.02646 | 34248 ft | 431 kts | 292° |
| 2026-05-07 09:31 | 39.09301 | 97.95836 | 34275 ft | 430 kts | 292° |
| 2026-05-07 09:31 | 39.12101 | 97.89044 | 34277 ft | 429 kts | 293° |
| 2026-05-07 09:32 | 39.14882 | 97.82302 | 34285 ft | 429 kts | 293° |
| 2026-05-07 09:32 | 39.17669 | 97.75503 | 34287 ft | 429 kts | 292° |
| 2026-05-07 09:33 | 39.20447 | 97.68708 | 34298 ft | 428 kts | 292° |
| 2026-05-07 09:33 | 39.23219 | 97.61920 | 34296 ft | 428 kts | 292° |
| 2026-05-07 09:34 | 39.25980 | 97.55126 | 34286 ft | 427 kts | 292° |
| 2026-05-07 09:34 | 39.28722 | 97.48316 | 34277 ft | 428 kts | 292° |
| 2026-05-07 09:35 | 39.31461 | 97.41500 | 34273 ft | 428 kts | 292° |
| 2026-05-07 09:35 | 39.34194 | 97.34674 | 34273 ft | 428 kts | 292° |
| 2026-05-07 09:36 | 39.36929 | 97.27851 | 34284 ft | 426 kts | 292° |
| 2026-05-07 09:36 | 39.39647 | 97.21057 | 34293 ft | 425 kts | 292° |
| 2026-05-07 09:37 | 39.42336 | 97.14329 | 34285 ft | 423 kts | 292° |
| 2026-05-07 09:37 | 39.45026 | 97.07566 | 34280 ft | 422 kts | 291° |
| 2026-05-07 09:38 | 39.47703 | 97.00814 | 34259 ft | 421 kts | 292° |
| 2026-05-07 09:38 | 39.50407 | 96.94082 | 34260 ft | 422 kts | 292° |
| 2026-05-07 09:39 | 39.53122 | 96.87335 | 34260 ft | 422 kts | 292° |
| 2026-05-07 09:39 | 39.55812 | 96.80588 | 34269 ft | 421 kts | 291° |
| 2026-05-07 09:40 | 39.58501 | 96.73842 | 34240 ft | 421 kts | 291° |
| 2026-05-07 09:40 | 39.61188 | 96.67087 | 34248 ft | 421 kts | 291° |
| 2026-05-07 09:41 | 39.63863 | 96.60328 | 34269 ft | 421 kts | 291° |
| 2026-05-07 09:41 | 39.66519 | 96.53569 | 34278 ft | 420 kts | 291° |
| 2026-05-07 09:42 | 39.69170 | 96.46816 | 34248 ft | 420 kts | 291° |
| 2026-05-07 09:42 | 39.71825 | 96.40066 | 34247 ft | 420 kts | 291° |
| 2026-05-07 09:43 | 39.74478 | 96.33303 | 34238 ft | 420 kts | 291° |
| 2026-05-07 09:43 | 39.77128 | 96.26520 | 34236 ft | 421 kts | 291° |
| 2026-05-07 09:44 | 39.79751 | 96.19776 | 34194 ft | 421 kts | 291° |
| 2026-05-07 09:44 | 39.82394 | 96.12983 | 34195 ft | 421 kts | 291° |
| 2026-05-07 09:45 | 39.85038 | 96.06184 | 34189 ft | 421 kts | 291° |
| 2026-05-07 09:45 | 39.87677 | 95.99379 | 34165 ft | 421 kts | 290° |
| 2026-05-07 09:46 | 39.90301 | 95.92574 | 34167 ft | 420 kts | 290° |
| 2026-05-07 09:46 | 39.92914 | 95.85782 | 34166 ft | 419 kts | 290° |
| 2026-05-07 09:47 | 39.95526 | 95.79000 | 34165 ft | 419 kts | 290° |
| 2026-05-07 09:47 | 39.98134 | 95.72220 | 34135 ft | 418 kts | 290° |
| 2026-05-07 09:48 | 40.00724 | 95.65435 | 34131 ft | 418 kts | 290° |
| 2026-05-07 09:48 | 40.03309 | 95.58644 | 34124 ft | 418 kts | 290° |
| 2026-05-07 09:49 | 40.05898 | 95.51845 | 34125 ft | 418 kts | 290° |
| 2026-05-07 09:49 | 40.08483 | 95.45044 | 34089 ft | 418 kts | 290° |
| 2026-05-07 09:50 | 40.11063 | 95.38235 | 34089 ft | 418 kts | 290° |
| 2026-05-07 09:50 | 40.13635 | 95.31420 | 34098 ft | 418 kts | 290° |
| 2026-05-07 09:51 | 40.16193 | 95.24654 | 34095 ft | 418 kts | 290° |
| 2026-05-07 09:51 | 40.18766 | 95.17839 | 34071 ft | 418 kts | 290° |
| 2026-05-07 09:52 | 40.21336 | 95.11020 | 34070 ft | 418 kts | 290° |
| 2026-05-07 09:52 | 40.23932 | 95.04216 | 34071 ft | 418 kts | 290° |
| 2026-05-07 09:53 | 40.26528 | 94.97397 | 34070 ft | 418 kts | 290° |
| 2026-05-07 09:53 | 40.29117 | 94.90573 | 34061 ft | 419 kts | 290° |
| 2026-05-07 09:54 | 40.32184 | 94.84022 | 34052 ft | 429 kts | 302° |
| 2026-05-07 09:54 | 40.35908 | 94.77898 | 34047 ft | 430 kts | 302° |
| 2026-05-07 09:55 | 40.39632 | 94.71762 | 34072 ft | 430 kts | 301° |
| 2026-05-07 09:55 | 40.43347 | 94.65629 | 34075 ft | 429 kts | 301° |
| 2026-05-07 09:56 | 40.47041 | 94.59489 | 34075 ft | 428 kts | 301° |
| 2026-05-07 09:56 | 40.50734 | 94.53349 | 34069 ft | 429 kts | 301° |
| 2026-05-07 09:57 | 40.54432 | 94.47197 | 34056 ft | 429 kts | 301° |
| 2026-05-07 09:57 | 40.58127 | 94.41031 | 34063 ft | 429 kts | 301° |
| 2026-05-07 09:58 | 40.61820 | 94.34862 | 34078 ft | 429 kts | 301° |
| 2026-05-07 09:58 | 40.65502 | 94.28700 | 34083 ft | 428 kts | 301° |
| 2026-05-07 09:59 | 40.69173 | 94.22548 | 34085 ft | 427 kts | 301° |
| 2026-05-07 09:59 | 40.72834 | 94.16395 | 34086 ft | 427 kts | 301° |
| 2026-05-07 10:00 | 40.76494 | 94.10222 | 34085 ft | 427 kts | 301° |
| 2026-05-07 10:00 | 40.80157 | 94.04044 | 34083 ft | 428 kts | 301° |
| 2026-05-07 10:01 | 40.83821 | 93.97854 | 34084 ft | 428 kts | 301° |
| 2026-05-07 10:01 | 40.87482 | 93.91644 | 34093 ft | 429 kts | 301° |
| 2026-05-07 10:02 | 40.91147 | 93.85416 | 34087 ft | 430 kts | 302° |
| 2026-05-07 10:02 | 40.94934 | 93.79275 | 34096 ft | 433 kts | 305° |
| 2026-05-07 10:03 | 40.98903 | 93.73250 | 34080 ft | 435 kts | 306° |
| 2026-05-07 10:03 | 41.02887 | 93.67204 | 34079 ft | 436 kts | 305° |
| 2026-05-07 10:04 | 41.06166 | 93.62133 | 34074 ft | 436 kts | 304° |
| 2026-05-07 10:04 | 41.10092 | 93.55992 | 34077 ft | 437 kts | 304° |
| 2026-05-07 10:05 | 41.14650 | 93.48841 | 34082 ft | 437 kts | 304° |
| 2026-05-07 10:05 | 41.18585 | 93.42697 | 34083 ft | 437 kts | 304° |
| 2026-05-07 10:06 | 41.22516 | 93.36541 | 34079 ft | 437 kts | 304° |
| 2026-05-07 10:06 | 41.25802 | 93.31386 | 34082 ft | 436 kts | 304° |
| 2026-05-07 10:07 | 41.30348 | 93.24214 | 34084 ft | 436 kts | 305° |
| 2026-05-07 10:07 | 41.33629 | 93.19031 | 34068 ft | 438 kts | 306° |
| 2026-05-07 10:08 | 41.37545 | 93.12863 | 34065 ft | 440 kts | 306° |
| 2026-05-07 10:08 | 41.41489 | 93.06628 | 34054 ft | 441 kts | 306° |
| 2026-05-07 10:09 | 41.45436 | 93.00365 | 34047 ft | 442 kts | 307° |
| 2026-05-07 10:09 | 41.49392 | 92.94060 | 34036 ft | 444 kts | 307° |
| 2026-05-07 10:10 | 41.53365 | 92.87729 | 34046 ft | 446 kts | 308° |
| 2026-05-07 10:10 | 41.57360 | 92.81361 | 34032 ft | 448 kts | 308° |
| 2026-05-07 10:11 | 41.61367 | 92.74951 | 34038 ft | 450 kts | 308° |
| 2026-05-07 10:11 | 41.65387 | 92.68511 | 34049 ft | 452 kts | 308° |
| 2026-05-07 10:12 | 41.69418 | 92.62052 | 34032 ft | 453 kts | 309° |
| 2026-05-07 10:12 | 41.73452 | 92.55558 | 34043 ft | 454 kts | 309° |
| 2026-05-07 10:13 | 41.77485 | 92.49045 | 34042 ft | 454 kts | 310° |
| 2026-05-07 10:13 | 41.81520 | 92.42525 | 34051 ft | 455 kts | 310° |
| 2026-05-07 10:14 | 41.85553 | 92.35991 | 34054 ft | 455 kts | 310° |
| 2026-05-07 10:14 | 41.89575 | 92.29449 | 34050 ft | 455 kts | 310° |
| 2026-05-07 10:15 | 41.93599 | 92.22911 | 34050 ft | 454 kts | 310° |
| 2026-05-07 10:15 | 41.97609 | 92.16372 | 34046 ft | 453 kts | 310° |
| 2026-05-07 10:16 | 42.01600 | 92.09851 | 34058 ft | 451 kts | 310° |
| 2026-05-07 10:16 | 42.05577 | 92.03330 | 34060 ft | 450 kts | 310° |
| 2026-05-07 10:17 | 42.09540 | 91.96817 | 34061 ft | 449 kts | 310° |
| 2026-05-07 10:17 | 42.13498 | 91.90306 | 34048 ft | 449 kts | 310° |
| 2026-05-07 10:18 | 42.17457 | 91.83793 | 34048 ft | 449 kts | 310° |
| 2026-05-07 10:18 | 42.21421 | 91.77289 | 34045 ft | 449 kts | 313° |
| 2026-05-07 10:19 | 42.26210 | 91.71976 | 34043 ft | 446 kts | 329° |
| 2026-05-07 10:19 | 42.31532 | 91.67649 | 34038 ft | 447 kts | 329° |
| 2026-05-07 10:20 | 42.36847 | 91.63298 | 34031 ft | 447 kts | 329° |
| 2026-05-07 10:20 | 42.42189 | 91.58900 | 34031 ft | 454 kts | 329° |
| 2026-05-07 10:21 | 42.47609 | 91.54432 | 34026 ft | 457 kts | 329° |
| 2026-05-07 10:21 | 42.53042 | 91.49947 | 34017 ft | 457 kts | 329° |
| 2026-05-07 10:22 | 42.58472 | 91.45459 | 34014 ft | 457 kts | 329° |
| 2026-05-07 10:22 | 42.63899 | 91.40962 | 34012 ft | 457 kts | 329° |
| 2026-05-07 10:23 | 42.69325 | 91.36474 | 34009 ft | 456 kts | 329° |
| 2026-05-07 10:23 | 42.74747 | 91.31978 | 34011 ft | 456 kts | 329° |
| 2026-05-07 10:24 | 42.80164 | 91.27460 | 34013 ft | 456 kts | 329° |
| 2026-05-07 10:24 | 42.85569 | 91.22943 | 34023 ft | 455 kts | 328° |
| 2026-05-07 10:25 | 42.90519 | 91.17600 | 34021 ft | 455 kts | 315° |
| 2026-05-07 10:25 | 42.95008 | 91.11515 | 34025 ft | 455 kts | 316° |
| 2026-05-07 10:26 | 42.99459 | 91.05469 | 34030 ft | 454 kts | 316° |
| 2026-05-07 10:26 | 43.03937 | 90.99374 | 34056 ft | 454 kts | 316° |
| 2026-05-07 10:27 | 43.08386 | 90.93287 | 34061 ft | 452 kts | 315° |
| 2026-05-07 10:27 | 43.12828 | 90.87208 | 34067 ft | 451 kts | 316° |
| 2026-05-07 10:28 | 43.17266 | 90.81152 | 34059 ft | 450 kts | 316° |
| 2026-05-07 10:28 | 43.21681 | 90.75097 | 34079 ft | 449 kts | 316° |
| 2026-05-07 10:29 | 43.26088 | 90.69029 | 34069 ft | 449 kts | 316° |
| 2026-05-07 10:29 | 43.30494 | 90.62956 | 34104 ft | 448 kts | 315° |
| 2026-05-07 10:30 | 43.34863 | 90.56911 | 33580 ft | 441 kts | 315° |
| 2026-05-07 10:30 | 43.37020 | 90.53918 | 33127 ft | 440 kts | 315° |
| 2026-05-07 10:30 | 43.39159 | 90.50892 | 32690 ft | 442 kts | 314° |
| 2026-05-07 10:30 | 43.41256 | 90.47817 | 32229 ft | 442 kts | 313° |
| 2026-05-07 10:31 | 43.43336 | 90.44693 | 31832 ft | 442 kts | 313° |
| 2026-05-07 10:31 | 43.45407 | 90.41549 | 31397 ft | 445 kts | 313° |
| 2026-05-07 10:31 | 43.47489 | 90.38384 | 30976 ft | 447 kts | 313° |
| 2026-05-07 10:31 | 43.49582 | 90.35216 | 30554 ft | 448 kts | 313° |
| 2026-05-07 10:32 | 43.51686 | 90.32049 | 30145 ft | 448 kts | 313° |
| 2026-05-07 10:32 | 43.53797 | 90.28886 | 29674 ft | 449 kts | 313° |
| 2026-05-07 10:32 | 43.55915 | 90.25722 | 29200 ft | 449 kts | 313° |
| 2026-05-07 10:32 | 43.58034 | 90.22556 | 28736 ft | 450 kts | 313° |
| 2026-05-07 10:33 | 43.60160 | 90.19370 | 28273 ft | 452 kts | 313° |
| 2026-05-07 10:33 | 43.62293 | 90.16164 | 27820 ft | 455 kts | 313° |
| 2026-05-07 10:33 | 43.64441 | 90.12931 | 27367 ft | 458 kts | 313° |
| 2026-05-07 10:33 | 43.66599 | 90.09676 | 26930 ft | 460 kts | 313° |
| 2026-05-07 10:34 | 43.68759 | 90.06410 | 26477 ft | 461 kts | 313° |
| 2026-05-07 10:34 | 43.70923 | 90.03132 | 26052 ft | 463 kts | 313° |
| 2026-05-07 10:34 | 43.73093 | 89.99843 | 25646 ft | 464 kts | 313° |
| 2026-05-07 10:34 | 43.75242 | 89.96586 | 25202 ft | 465 kts | 313° |
| 2026-05-07 10:35 | 43.77424 | 89.93278 | 24797 ft | 466 kts | 313° |
| 2026-05-07 10:35 | 43.79611 | 89.89965 | 24401 ft | 467 kts | 313° |
| 2026-05-07 10:35 | 43.81808 | 89.86633 | 24000 ft | 468 kts | 313° |
| 2026-05-07 10:35 | 43.83997 | 89.83305 | 23575 ft | 466 kts | 312° |
| 2026-05-07 10:36 | 43.86171 | 89.79997 | 23125 ft | 463 kts | 312° |
| 2026-05-07 10:36 | 43.88331 | 89.76703 | 22671 ft | 460 kts | 312° |
| 2026-05-07 10:36 | 43.90476 | 89.73429 | 22224 ft | 458 kts | 312° |
| 2026-05-07 10:36 | 43.92611 | 89.70166 | 21757 ft | 455 kts | 312° |
| 2026-05-07 10:37 | 43.94729 | 89.66921 | 21323 ft | 453 kts | 311° |
| 2026-05-07 10:37 | 43.96640 | 89.63461 | 20891 ft | 450 kts | 303° |
| 2026-05-07 10:37 | 43.98122 | 89.59652 | 20470 ft | 448 kts | 294° |
| 2026-05-07 10:37 | 43.99165 | 89.55582 | 20038 ft | 447 kts | 285° |
| 2026-05-07 10:38 | 43.99783 | 89.51368 | 19637 ft | 445 kts | 280° |
| 2026-05-07 10:38 | 44.00291 | 89.47140 | 19231 ft | 443 kts | 279° |
| 2026-05-07 10:38 | 44.00791 | 89.42937 | 18879 ft | 440 kts | 279° |
| 2026-05-07 10:38 | 44.01287 | 89.38742 | 18644 ft | 439 kts | 279° |
| 2026-05-07 10:39 | 44.01779 | 89.34560 | 18430 ft | 438 kts | 279° |
| 2026-05-07 10:39 | 44.02268 | 89.30391 | 18189 ft | 436 kts | 279° |
| 2026-05-07 10:39 | 44.02754 | 89.26235 | 17924 ft | 435 kts | 279° |
| 2026-05-07 10:39 | 44.03235 | 89.22108 | 17675 ft | 431 kts | 279° |
| 2026-05-07 10:40 | 44.03711 | 89.18009 | 17412 ft | 429 kts | 279° |
| 2026-05-07 10:40 | 44.04183 | 89.13928 | 17153 ft | 427 kts | 279° |
| 2026-05-07 10:40 | 44.04653 | 89.09858 | 16896 ft | 426 kts | 279° |
| 2026-05-07 10:40 | 44.05118 | 89.05806 | 16658 ft | 424 kts | 279° |
| 2026-05-07 10:41 | 44.05583 | 89.01765 | 16404 ft | 423 kts | 279° |
| 2026-05-07 10:41 | 44.06045 | 88.97737 | 16155 ft | 421 kts | 279° |
| 2026-05-07 10:41 | 44.06502 | 88.93721 | 15879 ft | 420 kts | 279° |
| 2026-05-07 10:41 | 44.06954 | 88.89712 | 15648 ft | 419 kts | 279° |
| 2026-05-07 10:42 | 44.07403 | 88.85722 | 15401 ft | 417 kts | 279° |
| 2026-05-07 10:42 | 44.07849 | 88.81737 | 15142 ft | 417 kts | 278° |
| 2026-05-07 10:42 | 44.08292 | 88.77759 | 14937 ft | 415 kts | 278° |
| 2026-05-07 10:42 | 44.08731 | 88.73795 | 14765 ft | 414 kts | 278° |
| 2026-05-07 10:43 | 44.09167 | 88.69837 | 14798 ft | 414 kts | 278° |
| 2026-05-07 10:43 | 44.09602 | 88.65873 | 14804 ft | 415 kts | 278° |
| 2026-05-07 10:43 | 44.10035 | 88.61909 | 14820 ft | 415 kts | 278° |
| 2026-05-07 10:43 | 44.10466 | 88.57942 | 14781 ft | 415 kts | 278° |
| 2026-05-07 10:44 | 44.10898 | 88.53985 | 14499 ft | 413 kts | 278° |
| 2026-05-07 10:44 | 44.11330 | 88.50041 | 14188 ft | 411 kts | 278° |
| 2026-05-07 10:44 | 44.11759 | 88.46112 | 13907 ft | 410 kts | 278° |
| 2026-05-07 10:44 | 44.12182 | 88.42200 | 13578 ft | 407 kts | 278° |
| 2026-05-07 10:45 | 44.12602 | 88.38310 | 13242 ft | 405 kts | 278° |
| 2026-05-07 10:45 | 44.13019 | 88.34446 | 12910 ft | 403 kts | 278° |
| 2026-05-07 10:45 | 44.13435 | 88.30593 | 12575 ft | 402 kts | 278° |
| 2026-05-07 10:45 | 44.13848 | 88.26751 | 12223 ft | 401 kts | 278° |
| 2026-05-07 10:46 | 44.14260 | 88.22927 | 11897 ft | 398 kts | 277° |
| 2026-05-07 10:46 | 44.14670 | 88.19121 | 11581 ft | 396 kts | 277° |
| 2026-05-07 10:46 | 44.15076 | 88.15340 | 11254 ft | 395 kts | 277° |
| 2026-05-07 10:46 | 44.15476 | 88.11563 | 10941 ft | 393 kts | 277° |
| 2026-05-07 10:47 | 44.15869 | 88.07802 | 10630 ft | 392 kts | 277° |
| 2026-05-07 10:47 | 44.16214 | 88.04109 | 10322 ft | 377 kts | 274° |
| 2026-05-07 10:47 | 44.16256 | 88.00535 | 10006 ft | 362 kts | 266° |
| 2026-05-07 10:47 | 44.15959 | 87.97125 | 9785 ft | 347 kts | 258° |
| 2026-05-07 10:48 | 44.15348 | 87.93979 | 9771 ft | 327 kts | 251° |
| 2026-05-07 10:48 | 44.14496 | 87.91148 | 9779 ft | 308 kts | 243° |
| 2026-05-07 10:48 | 44.13534 | 87.88567 | 9779 ft | 293 kts | 243° |
| 2026-05-07 10:48 | 44.12916 | 87.86914 | 9780 ft | 289 kts | 243° |
| 2026-05-07 10:49 | 44.11993 | 87.84444 | 9782 ft | 286 kts | 243° |
| 2026-05-07 10:49 | 44.11079 | 87.82006 | 9782 ft | 282 kts | 243° |
| 2026-05-07 10:49 | 44.10170 | 87.79583 | 9784 ft | 284 kts | 243° |
| 2026-05-07 10:49 | 44.08944 | 87.76322 | 9788 ft | 282 kts | 243° |
| 2026-05-07 10:50 | 44.08344 | 87.74723 | 9790 ft | 281 kts | 243° |
| 2026-05-07 10:50 | 44.07529 | 87.72259 | 9764 ft | 281 kts | 249° |
| 2026-05-07 10:50 | 44.06919 | 87.69670 | 9631 ft | 282 kts | 254° |
| 2026-05-07 10:50 | 44.06366 | 87.67031 | 9506 ft | 285 kts | 255° |
| 2026-05-07 10:51 | 44.05808 | 87.64407 | 9378 ft | 283 kts | 254° |
| 2026-05-07 10:51 | 44.05243 | 87.61771 | 9253 ft | 285 kts | 254° |
| 2026-05-07 10:51 | 44.04680 | 87.59134 | 9135 ft | 285 kts | 254° |
| 2026-05-07 10:51 | 44.04120 | 87.56497 | 9006 ft | 283 kts | 253° |
| 2026-05-07 10:52 | 44.03563 | 87.53874 | 8882 ft | 284 kts | 254° |
| 2026-05-07 10:52 | 44.03010 | 87.51278 | 8755 ft | 275 kts | 254° |
| 2026-05-07 10:52 | 44.02477 | 87.48784 | 8627 ft | 264 kts | 255° |
| 2026-05-07 10:52 | 44.01966 | 87.46391 | 8508 ft | 253 kts | 255° |
| 2026-05-07 10:53 | 44.01473 | 87.44092 | 8386 ft | 244 kts | 255° |
| 2026-05-07 10:53 | 44.00994 | 87.41864 | 8266 ft | 239 kts | 255° |
| 2026-05-07 10:53 | 44.00519 | 87.39655 | 8141 ft | 238 kts | 255° |
| 2026-05-07 10:53 | 44.00046 | 87.37453 | 8018 ft | 238 kts | 254° |
| 2026-05-07 10:54 | 43.99571 | 87.35238 | 7899 ft | 241 kts | 254° |
| 2026-05-07 10:54 | 43.99094 | 87.33005 | 7779 ft | 242 kts | 255° |
| 2026-05-07 10:54 | 43.98615 | 87.30760 | 7655 ft | 243 kts | 254° |
| 2026-05-07 10:54 | 43.98134 | 87.28506 | 7531 ft | 243 kts | 255° |
| 2026-05-07 10:55 | 43.97651 | 87.26253 | 7413 ft | 243 kts | 254° |
| 2026-05-07 10:55 | 43.97167 | 87.24005 | 7290 ft | 243 kts | 255° |
| 2026-05-07 10:55 | 43.96681 | 87.21750 | 7172 ft | 244 kts | 255° |
| 2026-05-07 10:55 | 43.96202 | 87.19532 | 7030 ft | 237 kts | 255° |
| 2026-05-07 10:56 | 43.95709 | 87.17347 | 6779 ft | 238 kts | 249° |
| 2026-05-07 10:56 | 43.94700 | 87.15566 | 6552 ft | 238 kts | 214° |
| 2026-05-07 10:56 | 43.93158 | 87.14846 | 6308 ft | 235 kts | 179° |
| 2026-05-07 10:56 | 43.91607 | 87.15346 | 6074 ft | 229 kts | 154° |
| 2026-05-07 10:57 | 43.90117 | 87.16142 | 5836 ft | 230 kts | 161° |
| 2026-05-07 10:57 | 43.88580 | 87.16803 | 5588 ft | 231 kts | 154° |
| 2026-05-07 10:57 | 43.87361 | 87.18143 | 5363 ft | 223 kts | 118° |
| 2026-05-07 10:57 | 43.86996 | 87.20116 | 5221 ft | 205 kts | 84° |
| 2026-05-07 10:58 | 43.87320 | 87.21986 | 5103 ft | 195 kts | 70° |
| 2026-05-07 10:58 | 43.87707 | 87.23752 | 4994 ft | 187 kts | 70° |
| 2026-05-07 10:58 | 43.88077 | 87.25458 | 4872 ft | 183 kts | 72° |
| 2026-05-07 10:58 | 43.88443 | 87.27150 | 4695 ft | 183 kts | 69° |
| 2026-05-07 10:59 | 43.88804 | 87.28824 | 4460 ft | 179 kts | 70° |
| 2026-05-07 10:59 | 43.89152 | 87.30445 | 4249 ft | 172 kts | 69° |
| 2026-05-07 10:59 | 43.89483 | 87.31988 | 4040 ft | 160 kts | 70° |
| 2026-05-07 10:59 | 43.89783 | 87.33392 | 3857 ft | 146 kts | 69° |
| 2026-05-07 11:00 | 43.90073 | 87.34739 | 3663 ft | 145 kts | 71° |
| 2026-05-07 11:00 | 43.90358 | 87.36064 | 3494 ft | 142 kts | 71° |
| 2026-05-07 11:00 | 43.90636 | 87.37362 | 3315 ft | 140 kts | 69° |
| 2026-05-07 11:00 | 43.90916 | 87.38654 | 3130 ft | 138 kts | 72° |
| 2026-05-07 11:01 | 43.91182 | 87.39932 | 2931 ft | 141 kts | 69° |
| 2026-05-07 11:01 | 43.91464 | 87.41258 | 2739 ft | 143 kts | 71° |
| 2026-05-07 11:01 | 43.91752 | 87.42569 | 2535 ft | 146 kts | 74° |
| 2026-05-07 11:01 | 43.92012 | 87.43880 | 2378 ft | 144 kts | 73° |
| 2026-05-07 11:02 | 43.92303 | 87.45194 | 2207 ft | 142 kts | 72° |
| 2026-05-07 11:02 | 43.92576 | 87.46458 | 2137 ft | 123 kts | 71° |
| 2026-05-07 11:02 | 43.92768 | 87.47362 | 2136 ft | 73 kts | 73° |
| 2026-05-07 11:02 | 43.92855 | 87.47793 | 2135 ft | 28 kts | 87° |
| 2026-05-07 11:03 | 43.92851 | 87.48005 | 2134 ft | 13 kts | 101° |
| 2026-05-07 11:03 | 43.92835 | 87.48119 | 2133 ft | 8 kts | 97° |
| 2026-05-07 11:03 | 43.92828 | 87.48181 | 2135 ft | 5 kts | 101° |
| 2026-05-07 11:03 | 43.92823 | 87.48222 | 2136 ft | 3 kts | 99° |
| 2026-05-07 11:04 | 43.92818 | 87.48262 | 2136 ft | 8 kts | 99° |
| 2026-05-07 11:04 | 43.92813 | 87.48372 | 2136 ft | 13 kts | 85° |
| 2026-05-07 11:04 | 43.92808 | 87.48496 | 2133 ft | 14 kts | 132° |
| 2026-05-07 11:04 | 43.92719 | 87.48546 | 2136 ft | 14 kts | 162° |
| 2026-05-07 11:05 | 43.92600 | 87.48596 | 2136 ft | 18 kts | 162° |
| 2026-05-07 11:05 | 43.92502 | 87.48578 | 2135 ft | 14 kts | 234° |
| 2026-05-07 11:05 | 43.92474 | 87.48461 | 2136 ft | 13 kts | 253° |
| 2026-05-07 11:05 | 43.92438 | 87.48291 | 2136 ft | 21 kts | 253° |
| 2026-05-07 11:06 | 43.92396 | 87.48091 | 2135 ft | 23 kts | 253° |
| 2026-05-07 11:06 | 43.92348 | 87.47876 | 2136 ft | 24 kts | 254° |
| 2026-05-07 11:06 | 43.92300 | 87.47643 | 2136 ft | 26 kts | 253° |
| 2026-05-07 11:06 | 43.92248 | 87.47395 | 2135 ft | 28 kts | 253° |
| 2026-05-07 11:07 | 43.92193 | 87.47138 | 2135 ft | 28 kts | 253° |
| 2026-05-07 11:07 | 43.92138 | 87.46881 | 2134 ft | 27 kts | 253° |
| 2026-05-07 11:07 | 43.92083 | 87.46622 | 2136 ft | 27 kts | 253° |
| 2026-05-07 11:07 | 43.92044 | 87.46460 | 2136 ft | 14 kts | 234° |
| 2026-05-07 11:08 | 43.91958 | 87.46461 | 2136 ft | 14 kts | 163° |
| 2026-05-07 11:08 | 43.91821 | 87.46517 | 2136 ft | 26 kts | 163° |
| 2026-05-07 11:08 | 43.91663 | 87.46582 | 2136 ft | 16 kts | 163° |
| 2026-05-07 11:08 | 43.91573 | 87.46621 | 2136 ft | 10 kts | 155° |
| 2026-05-07 11:09 | 43.91572 | 87.46698 | 2135 ft | 9 kts | 73° |
| 2026-05-07 11:09 | 43.91612 | 87.46795 | 2136 ft | 14 kts | 25° |
| 2026-05-07 11:09 | 43.91708 | 87.46776 | 2134 ft | 13 kts | 346° |
| 2026-05-07 11:09 | 43.91771 | 87.46791 | 2136 ft | 7 kts | 60° |
| 2026-05-07 11:10 | 43.91777 | 87.46810 | 2136 ft | 1 kts | 69° |
| 2026-05-07 11:10 | 43.91779 | 87.46824 | 2136 ft | 1 kts | 74° |
| 2026-05-07 11:10 | 43.91782 | 87.46835 | 2136 ft | 0 kts | 74° |
| 2026-05-07 11:10 | 43.91782 | 87.46836 | 2136 ft | 0 kts | 74° |